OH41 weather

CLOSED Cutler Field
Powell, Ohio, United States

Public forecast

Using degrees Fahrenheit for public forecast. Weather courtesy of forecast.io.

Closest aviation weather report (METAR) to Cutler Field

Closest report is Delaware Municipal Airport, 5.2 nm (9.6 km) N. Retrieved 2020/05/30 15:59 UTC (1 hour ago):

KDLZ 301559Z AUTO 32010G15KT 10SM SCT043 BKN050 19/10 A3011 RMK AO2

Closest aviation forecast (TAF) to Cutler Field

Closest forecast is John Glenn Columbus International Airport, 15.5 nm (28.7 km) SE. Retrieved 2020/05/30 12:33 UTC (5 hours ago):

TAF KCMH 301130Z 3012/3112 30004KT P6SM BKN080 FM301500 33010KT P6SM BKN050 FM310000 34005KT P6SM SKC